sensor_id;sensor_type;location;lat;lon;timestamp;temperature;humidity
55121;DHT22;41019;48.512;9.036;2023-03-01T00:01:28;-0.70;91.50
55121;DHT22;41019;48.512;9.036;2023-03-01T00:03:55;-0.60;91.50
55121;DHT22;41019;48.512;9.036;2023-03-01T00:06:22;-0.70;91.40
55121;DHT22;41019;48.512;9.036;2023-03-01T00:08:49;-0.70;91.80
55121;DHT22;41019;48.512;9.036;2023-03-01T00:11:27;-0.70;91.60
55121;DHT22;41019;48.512;9.036;2023-03-01T00:13:56;-0.70;91.90
55121;DHT22;41019;48.512;9.036;2023-03-01T00:16:28;-0.80;92.50
55121;DHT22;41019;48.512;9.036;2023-03-01T00:18:55;-0.80;92.90
55121;DHT22;41019;48.512;9.036;2023-03-01T00:21:22;-0.90;92.80
55121;DHT22;41019;48.512;9.036;2023-03-01T00:23:49;-0.90;93.00
55121;DHT22;41019;48.512;9.036;2023-03-01T00:26:16;-1.00;93.10
55121;DHT22;41019;48.512;9.036;2023-03-01T00:28:44;-1.00;93.00
55121;DHT22;41019;48.512;9.036;2023-03-01T00:31:21;-1.10;92.90
55121;DHT22;41019;48.512;9.036;2023-03-01T00:33:48;-1.10;92.80
55121;DHT22;41019;48.512;9.036;2023-03-01T00:36:17;-1.20;92.90
55121;DHT22;41019;48.512;9.036;2023-03-01T00:38:45;-1.20;92.80
55121;DHT22;41019;48.512;9.036;2023-03-01T00:41:13;-1.20;93.30
55121;DHT22;41019;48.512;9.036;2023-03-01T00:43:40;-1.30;93.60
55121;DHT22;41019;48.512;9.036;2023-03-01T00:46:13;-1.30;93.60
55121;DHT22;41019;48.512;9.036;2023-03-01T00:48:40;-1.30;93.90
55121;DHT22;41019;48.512;9.036;2023-03-01T00:51:10;-1.30;93.80
55121;DHT22;41019;48.512;9.036;2023-03-01T00:53:37;-1.30;93.90
55121;DHT22;41019;48.512;9.036;2023-03-01T00:56:04;-1.40;93.90
55121;DHT22;41019;48.512;9.036;2023-03-01T00:58:30;-1.30;93.80
55121;DHT22;41019;48.512;9.036;2023-03-01T01:00:57;-1.30;93.60
55121;DHT22;41019;48.512;9.036;2023-03-01T01:03:23;-1.40;93.50
55121;DHT22;41019;48.512;9.036;2023-03-01T01:05:53;-1.40;93.10
55121;DHT22;41019;48.512;9.036;2023-03-01T01:08:20;-1.50;92.90
55121;DHT22;41019;48.512;9.036;2023-03-01T01:10:47;-1.50;93.10
55121;DHT22;41019;48.512;9.036;2023-03-01T01:13:13;-1.60;92.90
55121;DHT22;41019;48.512;9.036;2023-03-01T01:15:40;-1.60;93.00
55121;DHT22;41019;48.512;9.036;2023-03-01T01:18:06;-1.60;93.10
55121;DHT22;41019;48.512;9.036;2023-03-01T01:20:32;-1.70;93.50
55121;DHT22;41019;48.512;9.036;2023-03-01T01:22:58;-1.70;93.60
55121;DHT22;41019;48.512;9.036;2023-03-01T01:25:24;-1.70;93.40
55121;DHT22;41019;48.512;9.036;2023-03-01T01:27:51;-1.70;93.40
55121;DHT22;41019;48.512;9.036;2023-03-01T01:30:17;-1.80;93.10
55121;DHT22;41019;48.512;9.036;2023-03-01T01:32:43;-1.80;93.30
55121;DHT22;41019;48.512;9.036;2023-03-01T01:35:09;-1.80;93.90
55121;DHT22;41019;48.512;9.036;2023-03-01T01:37:35;-1.80;93.80
55121;DHT22;41019;48.512;9.036;2023-03-01T01:40:01;-1.90;93.60
55121;DHT22;41019;48.512;9.036;2023-03-01T01:42:30;-1.90;93.80
55121;DHT22;41019;48.512;9.036;2023-03-01T01:45:28;-1.90;94.10
55121;DHT22;41019;48.512;9.036;2023-03-01T01:48:19;-1.90;94.70
55121;DHT22;41019;48.512;9.036;2023-03-01T01:50:42;-1.90;94.80
55121;DHT22;41019;48.512;9.036;2023-03-01T01:53:16;-1.90;95.10
55121;DHT22;41019;48.512;9.036;2023-03-01T01:55:52;-1.90;95.20
55121;DHT22;41019;48.512;9.036;2023-03-01T01:58:21;-1.90;95.40
55121;DHT22;41019;48.512;9.036;2023-03-01T02:00:48;-1.90;95.70
55121;DHT22;41019;48.512;9.036;2023-03-01T02:03:18;-1.80;95.80
55121;DHT22;41019;48.512;9.036;2023-03-01T02:08:35;-1.70;96.00
55121;DHT22;41019;48.512;9.036;2023-03-01T02:11:03;-1.70;96.00
55121;DHT22;41019;48.512;9.036;2023-03-01T02:13:33;-1.70;96.30
55121;DHT22;41019;48.512;9.036;2023-03-01T02:16:03;-1.60;96.10
55121;DHT22;41019;48.512;9.036;2023-03-01T02:18:30;-1.50;96.20
55121;DHT22;41019;48.512;9.036;2023-03-01T02:24:34;-1.40;96.20
55121;DHT22;41019;48.512;9.036;2023-03-01T02:27:04;-1.30;96.20
55121;DHT22;41019;48.512;9.036;2023-03-01T02:29:30;-1.30;96.20
55121;DHT22;41019;48.512;9.036;2023-03-01T02:32:00;-1.20;96.40
55121;DHT22;41019;48.512;9.036;2023-03-01T02:34:28;-1.20;96.10
55121;DHT22;41019;48.512;9.036;2023-03-01T02:37:05;-1.10;96.20
55121;DHT22;41019;48.512;9.036;2023-03-01T02:39:47;-1.10;96.10
55121;DHT22;41019;48.512;9.036;2023-03-01T02:42:19;-1.10;96.60
55121;DHT22;41019;48.512;9.036;2023-03-01T02:44:47;-1.00;96.30
55121;DHT22;41019;48.512;9.036;2023-03-01T02:47:15;-1.00;96.20
55121;DHT22;41019;48.512;9.036;2023-03-01T02:49:41;-1.00;96.30
55121;DHT22;41019;48.512;9.036;2023-03-01T02:52:37;-0.90;96.20
55121;DHT22;41019;48.512;9.036;2023-03-01T02:55:10;-0.90;96.50
55121;DHT22;41019;48.512;9.036;2023-03-01T02:57:40;-0.80;96.20
55121;DHT22;41019;48.512;9.036;2023-03-01T03:00:31;-0.90;96.10
55121;DHT22;41019;48.512;9.036;2023-03-01T03:02:54;-0.80;95.70
55121;DHT22;41019;48.512;9.036;2023-03-01T03:05:29;-0.80;95.70
55121;DHT22;41019;48.512;9.036;2023-03-01T03:07:59;-0.80;95.90
55121;DHT22;41019;48.512;9.036;2023-03-01T03:10:29;-0.80;95.80
55121;DHT22;41019;48.512;9.036;2023-03-01T03:13:01;-0.80;95.80
55121;DHT22;41019;48.512;9.036;2023-03-01T03:15:28;-0.80;95.80
55121;DHT22;41019;48.512;9.036;2023-03-01T03:17:56;-0.70;96.00
55121;DHT22;41019;48.512;9.036;2023-03-01T03:20:26;-0.70;96.00
55121;DHT22;41019;48.512;9.036;2023-03-01T03:22:54;-0.70;96.10
55121;DHT22;41019;48.512;9.036;2023-03-01T03:25:22;-0.60;96.10
55121;DHT22;41019;48.512;9.036;2023-03-01T03:27:52;-0.70;96.20
55121;DHT22;41019;48.512;9.036;2023-03-01T03:30:25;-0.60;96.30
55121;DHT22;41019;48.512;9.036;2023-03-01T03:32:52;-0.60;96.20
55121;DHT22;41019;48.512;9.036;2023-03-01T03:35:24;-0.60;96.20
55121;DHT22;41019;48.512;9.036;2023-03-01T03:37:51;-0.50;96.20
55121;DHT22;41019;48.512;9.036;2023-03-01T03:40:36;-0.50;96.50
55121;DHT22;41019;48.512;9.036;2023-03-01T03:43:04;-0.50;96.40
55121;DHT22;41019;48.512;9.036;2023-03-01T03:45:30;-0.40;96.30
55121;DHT22;41019;48.512;9.036;2023-03-01T03:48:03;-0.40;96.50
55121;DHT22;41019;48.512;9.036;2023-03-01T03:50:30;-0.40;96.50
55121;DHT22;41019;48.512;9.036;2023-03-01T03:52:56;-0.40;96.50
55121;DHT22;41019;48.512;9.036;2023-03-01T03:55:22;-0.30;96.40
55121;DHT22;41019;48.512;9.036;2023-03-01T03:57:48;-0.30;96.60
55121;DHT22;41019;48.512;9.036;2023-03-01T04:00:19;-0.30;96.60
55121;DHT22;41019;48.512;9.036;2023-03-01T04:02:47;-0.30;96.30
55121;DHT22;41019;48.512;9.036;2023-03-01T04:05:15;-0.30;96.20
55121;DHT22;41019;48.512;9.036;2023-03-01T04:07:42;-0.30;96.10
55121;DHT22;41019;48.512;9.036;2023-03-01T04:10:11;-0.30;96.20
55121;DHT22;41019;48.512;9.036;2023-03-01T04:12:38;-0.30;96.20
55121;DHT22;41019;48.512;9.036;2023-03-01T04:15:06;-0.30;96.20
55121;DHT22;41019;48.512;9.036;2023-03-01T04:17:46;-0.30;96.20
55121;DHT22;41019;48.512;9.036;2023-03-01T04:20:15;-0.30;96.20
55121;DHT22;41019;48.512;9.036;2023-03-01T04:22:51;-0.20;96.40
55121;DHT22;41019;48.512;9.036;2023-03-01T04:25:18;-0.30;96.30
55121;DHT22;41019;48.512;9.036;2023-03-01T04:27:44;-0.20;96.30
55121;DHT22;41019;48.512;9.036;2023-03-01T04:30:10;-0.20;96.20
55121;DHT22;41019;48.512;9.036;2023-03-01T04:32:36;-0.20;96.40
55121;DHT22;41019;48.512;9.036;2023-03-01T04:35:02;-0.20;96.20
55121;DHT22;41019;48.512;9.036;2023-03-01T04:37:28;-0.20;96.20
55121;DHT22;41019;48.512;9.036;2023-03-01T04:39:55;-0.20;96.20
55121;DHT22;41019;48.512;9.036;2023-03-01T04:42:21;-0.20;96.30
55121;DHT22;41019;48.512;9.036;2023-03-01T04:44:47;-0.10;96.30
55121;DHT22;41019;48.512;9.036;2023-03-01T04:47:13;-0.10;96.40
55121;DHT22;41019;48.512;9.036;2023-03-01T04:49:39;-0.10;96.40
55121;DHT22;41019;48.512;9.036;2023-03-01T04:52:05;-0.10;96.40
55121;DHT22;41019;48.512;9.036;2023-03-01T04:54:32;-0.10;96.40
55121;DHT22;41019;48.512;9.036;2023-03-01T04:56:59;0.00;96.40
55121;DHT22;41019;48.512;9.036;2023-03-01T04:59:25;0.00;96.50
55121;DHT22;41019;48.512;9.036;2023-03-01T05:01:53;0.00;96.50
55121;DHT22;41019;48.512;9.036;2023-03-01T05:04:23;0.00;96.50
55121;DHT22;41019;48.512;9.036;2023-03-01T05:06:50;0.10;96.60
55121;DHT22;41019;48.512;9.036;2023-03-01T05:09:16;0.10;96.60
55121;DHT22;41019;48.512;9.036;2023-03-01T05:11:42;0.10;96.50
55121;DHT22;41019;48.512;9.036;2023-03-01T05:14:09;0.10;96.50
55121;DHT22;41019;48.512;9.036;2023-03-01T05:16:36;0.10;96.70
55121;DHT22;41019;48.512;9.036;2023-03-01T05:19:03;0.20;96.80
55121;DHT22;41019;48.512;9.036;2023-03-01T05:21:38;0.20;96.80
55121;DHT22;41019;48.512;9.036;2023-03-01T05:24:24;0.20;96.70
55121;DHT22;41019;48.512;9.036;2023-03-01T05:26:50;0.20;96.90
55121;DHT22;41019;48.512;9.036;2023-03-01T05:29:21;0.20;96.60
55121;DHT22;41019;48.512;9.036;2023-03-01T05:31:54;0.20;96.50
55121;DHT22;41019;48.512;9.036;2023-03-01T05:34:29;0.20;96.30
55121;DHT22;41019;48.512;9.036;2023-03-01T05:36:56;0.20;96.20
55121;DHT22;41019;48.512;9.036;2023-03-01T05:39:24;0.30;96.10
55121;DHT22;41019;48.512;9.036;2023-03-01T05:41:57;0.30;96.10
55121;DHT22;41019;48.512;9.036;2023-03-01T05:44:25;0.30;96.20
55121;DHT22;41019;48.512;9.036;2023-03-01T05:46:51;0.30;96.10
55121;DHT22;41019;48.512;9.036;2023-03-01T05:49:18;0.40;96.10
55121;DHT22;41019;48.512;9.036;2023-03-01T05:51:48;0.40;96.10
55121;DHT22;41019;48.512;9.036;2023-03-01T05:54:15;0.40;96.10
55121;DHT22;41019;48.512;9.036;2023-03-01T05:56:41;0.40;96.20
55121;DHT22;41019;48.512;9.036;2023-03-01T05:59:08;0.50;96.30
55121;DHT22;41019;48.512;9.036;2023-03-01T06:01:34;0.50;96.30
55121;DHT22;41019;48.512;9.036;2023-03-01T06:04:01;0.50;96.50
55121;DHT22;41019;48.512;9.036;2023-03-01T06:06:28;0.50;96.70
55121;DHT22;41019;48.512;9.036;2023-03-01T06:08:54;0.50;96.60
55121;DHT22;41019;48.512;9.036;2023-03-01T06:11:21;0.60;96.60
55121;DHT22;41019;48.512;9.036;2023-03-01T06:13:47;0.60;96.40
55121;DHT22;41019;48.512;9.036;2023-03-01T06:16:14;0.60;96.30
55121;DHT22;41019;48.512;9.036;2023-03-01T06:18:41;0.60;96.20
55121;DHT22;41019;48.512;9.036;2023-03-01T06:21:08;0.60;96.30
55121;DHT22;41019;48.512;9.036;2023-03-01T06:23:34;0.60;96.40
55121;DHT22;41019;48.512;9.036;2023-03-01T06:26:04;0.60;96.30
55121;DHT22;41019;48.512;9.036;2023-03-01T06:28:30;0.60;96.20
55121;DHT22;41019;48.512;9.036;2023-03-01T06:30:56;0.70;96.40
55121;DHT22;41019;48.512;9.036;2023-03-01T06:33:22;0.70;96.50
55121;DHT22;41019;48.512;9.036;2023-03-01T06:35:50;0.70;96.40
55121;DHT22;41019;48.512;9.036;2023-03-01T06:38:16;0.70;96.60
55121;DHT22;41019;48.512;9.036;2023-03-01T06:40:45;0.70;96.40
55121;DHT22;41019;48.512;9.036;2023-03-01T06:43:16;0.80;96.20
55121;DHT22;41019;48.512;9.036;2023-03-01T06:45:42;0.80;96.10
55121;DHT22;41019;48.512;9.036;2023-03-01T06:48:08;0.80;95.70
55121;DHT22;41019;48.512;9.036;2023-03-01T06:50:34;0.80;95.30
55121;DHT22;41019;48.512;9.036;2023-03-01T06:53:01;0.80;95.30
55121;DHT22;41019;48.512;9.036;2023-03-01T06:55:27;0.80;95.40
55121;DHT22;41019;48.512;9.036;2023-03-01T06:57:58;0.80;95.20
55121;DHT22;41019;48.512;9.036;2023-03-01T07:00:25;0.80;94.70
55121;DHT22;41019;48.512;9.036;2023-03-01T07:02:51;0.80;94.30
55121;DHT22;41019;48.512;9.036;2023-03-01T07:05:18;0.90;93.80
55121;DHT22;41019;48.512;9.036;2023-03-01T07:07:44;0.90;93.60
55121;DHT22;41019;48.512;9.036;2023-03-01T07:10:11;0.90;93.50
55121;DHT22;41019;48.512;9.036;2023-03-01T07:12:37;1.00;93.30
55121;DHT22;41019;48.512;9.036;2023-03-01T07:15:03;1.00;92.90
55121;DHT22;41019;48.512;9.036;2023-03-01T07:17:30;1.10;92.60
55121;DHT22;41019;48.512;9.036;2023-03-01T07:19:56;1.20;92.10
55121;DHT22;41019;48.512;9.036;2023-03-01T07:22:22;1.30;91.90
55121;DHT22;41019;48.512;9.036;2023-03-01T07:24:48;1.30;91.80
55121;DHT22;41019;48.512;9.036;2023-03-01T07:27:14;1.40;91.50
55121;DHT22;41019;48.512;9.036;2023-03-01T07:29:39;1.50;91.00
55121;DHT22;41019;48.512;9.036;2023-03-01T07:32:06;1.60;90.70
55121;DHT22;41019;48.512;9.036;2023-03-01T07:34:32;1.70;90.20
55121;DHT22;41019;48.512;9.036;2023-03-01T07:36:58;1.80;89.90
55121;DHT22;41019;48.512;9.036;2023-03-01T07:39:24;1.80;89.10
55121;DHT22;41019;48.512;9.036;2023-03-01T07:41:50;2.00;89.00
55121;DHT22;41019;48.512;9.036;2023-03-01T07:44:20;2.00;88.20
55121;DHT22;41019;48.512;9.036;2023-03-01T07:46:46;2.10;87.70
55121;DHT22;41019;48.512;9.036;2023-03-01T07:49:12;2.20;87.60
55121;DHT22;41019;48.512;9.036;2023-03-01T07:51:38;2.30;86.80
55121;DHT22;41019;48.512;9.036;2023-03-01T07:54:04;2.40;86.60
55121;DHT22;41019;48.512;9.036;2023-03-01T07:56:30;2.50;86.40
55121;DHT22;41019;48.512;9.036;2023-03-01T07:58:56;2.60;85.60
55121;DHT22;41019;48.512;9.036;2023-03-01T08:01:24;2.60;85.00
55121;DHT22;41019;48.512;9.036;2023-03-01T08:03:50;2.70;84.70
55121;DHT22;41019;48.512;9.036;2023-03-01T08:06:17;2.70;84.80
55121;DHT22;41019;48.512;9.036;2023-03-01T08:08:44;2.90;83.80
55121;DHT22;41019;48.512;9.036;2023-03-01T08:11:12;2.80;83.30
55121;DHT22;41019;48.512;9.036;2023-03-01T08:13:39;2.90;82.80
55121;DHT22;41019;48.512;9.036;2023-03-01T08:16:08;3.00;82.70
55121;DHT22;41019;48.512;9.036;2023-03-01T08:18:34;3.20;82.20
55121;DHT22;41019;48.512;9.036;2023-03-01T08:21:09;3.30;81.80
55121;DHT22;41019;48.512;9.036;2023-03-01T08:23:35;3.30;81.30
55121;DHT22;41019;48.512;9.036;2023-03-01T08:26:17;3.40;80.90
55121;DHT22;41019;48.512;9.036;2023-03-01T08:28:44;3.40;80.50
55121;DHT22;41019;48.512;9.036;2023-03-01T08:31:20;3.40;80.40
55121;DHT22;41019;48.512;9.036;2023-03-01T08:33:47;3.50;80.50
55121;DHT22;41019;48.512;9.036;2023-03-01T08:36:22;3.40;80.20
55121;DHT22;41019;48.512;9.036;2023-03-01T08:38:48;3.40;80.20
55121;DHT22;41019;48.512;9.036;2023-03-01T08:41:14;3.30;80.00
55121;DHT22;41019;48.512;9.036;2023-03-01T08:43:40;3.40;80.10
55121;DHT22;41019;48.512;9.036;2023-03-01T08:46:07;3.30;79.90
55121;DHT22;41019;48.512;9.036;2023-03-01T08:48:33;3.20;80.00
55121;DHT22;41019;48.512;9.036;2023-03-01T08:51:16;3.20;80.20
55121;DHT22;41019;48.512;9.036;2023-03-01T08:53:42;3.30;80.00
55121;DHT22;41019;48.512;9.036;2023-03-01T08:56:09;3.30;79.80
55121;DHT22;41019;48.512;9.036;2023-03-01T08:58:37;3.40;79.90
55121;DHT22;41019;48.512;9.036;2023-03-01T09:01:15;3.60;79.70
55121;DHT22;41019;48.512;9.036;2023-03-01T09:03:42;3.80;79.00
55121;DHT22;41019;48.512;9.036;2023-03-01T09:06:09;4.00;77.90
55121;DHT22;41019;48.512;9.036;2023-03-01T09:08:40;4.20;77.20
55121;DHT22;41019;48.512;9.036;2023-03-01T09:11:08;4.50;76.30
55121;DHT22;41019;48.512;9.036;2023-03-01T09:13:35;4.70;75.00
55121;DHT22;41019;48.512;9.036;2023-03-01T09:16:02;4.80;73.40
55121;DHT22;41019;48.512;9.036;2023-03-01T09:18:29;4.90;72.40
55121;DHT22;41019;48.512;9.036;2023-03-01T09:21:05;5.00;71.90
55121;DHT22;41019;48.512;9.036;2023-03-01T09:23:40;5.20;71.60
55121;DHT22;41019;48.512;9.036;2023-03-01T09:26:08;5.40;70.90
55121;DHT22;41019;48.512;9.036;2023-03-01T09:28:36;5.50;70.00
55121;DHT22;41019;48.512;9.036;2023-03-01T09:31:02;5.70;70.00
55121;DHT22;41019;48.512;9.036;2023-03-01T09:33:30;5.80;69.10
55121;DHT22;41019;48.512;9.036;2023-03-01T09:35:58;6.00;69.10
55121;DHT22;41019;48.512;9.036;2023-03-01T09:38:24;6.10;67.30
55121;DHT22;41019;48.512;9.036;2023-03-01T09:40:50;6.10;67.70
55121;DHT22;41019;48.512;9.036;2023-03-01T09:43:30;6.20;67.40
55121;DHT22;41019;48.512;9.036;2023-03-01T09:46:05;6.30;67.30
55121;DHT22;41019;48.512;9.036;2023-03-01T09:48:43;6.40;67.20
55121;DHT22;41019;48.512;9.036;2023-03-01T09:51:23;6.40;66.00
55121;DHT22;41019;48.512;9.036;2023-03-01T09:53:50;6.50;65.70
55121;DHT22;41019;48.512;9.036;2023-03-01T09:56:26;6.70;66.20
55121;DHT22;41019;48.512;9.036;2023-03-01T09:59:20;6.80;64.80
55121;DHT22;41019;48.512;9.036;2023-03-01T10:02:27;6.90;63.60
55121;DHT22;41019;48.512;9.036;2023-03-01T10:05:30;7.00;63.80
55121;DHT22;41019;48.512;9.036;2023-03-01T10:10:53;7.20;63.80
55121;DHT22;41019;48.512;9.036;2023-03-01T10:13:37;7.20;62.00
55121;DHT22;41019;48.512;9.036;2023-03-01T10:16:23;7.30;62.10
55121;DHT22;41019;48.512;9.036;2023-03-01T10:18:58;7.40;62.10
55121;DHT22;41019;48.512;9.036;2023-03-01T10:21:27;7.60;63.10
55121;DHT22;41019;48.512;9.036;2023-03-01T10:24:01;7.70;62.40
55121;DHT22;41019;48.512;9.036;2023-03-01T10:26:53;7.80;61.00
55121;DHT22;41019;48.512;9.036;2023-03-01T10:29:25;7.70;60.70
55121;DHT22;41019;48.512;9.036;2023-03-01T10:31:54;7.90;60.60
55121;DHT22;41019;48.512;9.036;2023-03-01T10:34:32;8.00;59.80
55121;DHT22;41019;48.512;9.036;2023-03-01T10:37:17;8.10;60.20
55121;DHT22;41019;48.512;9.036;2023-03-01T10:42:30;8.30;59.00
55121;DHT22;41019;48.512;9.036;2023-03-01T10:44:58;8.30;59.50
55121;DHT22;41019;48.512;9.036;2023-03-01T10:47:39;8.30;58.90
55121;DHT22;41019;48.512;9.036;2023-03-01T10:50:19;8.20;58.80
55121;DHT22;41019;48.512;9.036;2023-03-01T10:53:01;8.30;58.50
55121;DHT22;41019;48.512;9.036;2023-03-01T10:55:40;8.30;58.90
55121;DHT22;41019;48.512;9.036;2023-03-01T11:00:58;8.60;58.00
55121;DHT22;41019;48.512;9.036;2023-03-01T11:03:37;8.50;57.60
55121;DHT22;41019;48.512;9.036;2023-03-01T11:08:41;8.70;57.80
55121;DHT22;41019;48.512;9.036;2023-03-01T11:11:30;8.70;57.70
55121;DHT22;41019;48.512;9.036;2023-03-01T11:14:16;8.90;57.40
55121;DHT22;41019;48.512;9.036;2023-03-01T11:16:47;8.90;57.00
55121;DHT22;41019;48.512;9.036;2023-03-01T11:19:15;8.80;56.80
55121;DHT22;41019;48.512;9.036;2023-03-01T11:22:03;9.00;57.00
55121;DHT22;41019;48.512;9.036;2023-03-01T11:24:40;9.00;56.00
55121;DHT22;41019;48.512;9.036;2023-03-01T11:29:59;9.30;55.80
55121;DHT22;41019;48.512;9.036;2023-03-01T11:32:32;9.40;56.10
55121;DHT22;41019;48.512;9.036;2023-03-01T11:35:10;9.50;55.70
55121;DHT22;41019;48.512;9.036;2023-03-01T11:37:57;9.60;54.80
55121;DHT22;41019;48.512;9.036;2023-03-01T11:40:47;9.60;54.50
55121;DHT22;41019;48.512;9.036;2023-03-01T11:49:32;9.70;53.80
55121;DHT22;41019;48.512;9.036;2023-03-01T11:52:36;9.80;54.00
55121;DHT22;41019;48.512;9.036;2023-03-01T12:19:33;10.10;51.90
55121;DHT22;41019;48.512;9.036;2023-03-01T12:25:14;10.10;52.20
55121;DHT22;41019;48.512;9.036;2023-03-01T12:36:41;10.00;51.40
55121;DHT22;41019;48.512;9.036;2023-03-01T12:50:33;10.40;52.20
55121;DHT22;41019;48.512;9.036;2023-03-01T12:53:03;10.40;51.10
55121;DHT22;41019;48.512;9.036;2023-03-01T12:55:37;10.40;51.20
55121;DHT22;41019;48.512;9.036;2023-03-01T13:00:48;10.20;50.90
55121;DHT22;41019;48.512;9.036;2023-03-01T13:04:03;10.30;51.50
55121;DHT22;41019;48.512;9.036;2023-03-01T13:06:39;10.00;50.90
55121;DHT22;41019;48.512;9.036;2023-03-01T13:09:27;10.00;52.00
55121;DHT22;41019;48.512;9.036;2023-03-01T13:11:56;10.10;51.20
55121;DHT22;41019;48.512;9.036;2023-03-01T13:16:54;10.00;51.90
55121;DHT22;41019;48.512;9.036;2023-03-01T13:19:28;9.90;51.40
55121;DHT22;41019;48.512;9.036;2023-03-01T13:22:25;9.90;51.60
55121;DHT22;41019;48.512;9.036;2023-03-01T13:25:18;9.90;51.70
55121;DHT22;41019;48.512;9.036;2023-03-01T13:27:46;10.00;51.70
55121;DHT22;41019;48.512;9.036;2023-03-01T13:33:41;9.80;52.10
55121;DHT22;41019;48.512;9.036;2023-03-01T13:36:09;9.90;51.90
55121;DHT22;41019;48.512;9.036;2023-03-01T13:38:48;9.90;52.70
55121;DHT22;41019;48.512;9.036;2023-03-01T13:46:56;9.90;51.50
55121;DHT22;41019;48.512;9.036;2023-03-01T13:49:27;9.80;51.50
55121;DHT22;41019;48.512;9.036;2023-03-01T13:51:55;9.80;51.80
55121;DHT22;41019;48.512;9.036;2023-03-01T13:54:29;9.80;51.90
55121;DHT22;41019;48.512;9.036;2023-03-01T13:56:58;9.80;51.90
55121;DHT22;41019;48.512;9.036;2023-03-01T13:59:25;9.70;51.70
55121;DHT22;41019;48.512;9.036;2023-03-01T14:01:58;9.70;52.10
55121;DHT22;41019;48.512;9.036;2023-03-01T14:04:30;9.70;51.80
55121;DHT22;41019;48.512;9.036;2023-03-01T14:07:19;9.80;52.10
55121;DHT22;41019;48.512;9.036;2023-03-01T14:09:52;9.70;51.60
55121;DHT22;41019;48.512;9.036;2023-03-01T14:12:37;9.60;52.10
55121;DHT22;41019;48.512;9.036;2023-03-01T14:20:44;9.60;52.50
55121;DHT22;41019;48.512;9.036;2023-03-01T14:23:22;9.60;52.30
55121;DHT22;41019;48.512;9.036;2023-03-01T14:25:54;9.60;52.80
55121;DHT22;41019;48.512;9.036;2023-03-01T14:28:27;9.60;52.90
55121;DHT22;41019;48.512;9.036;2023-03-01T14:30:56;9.60;52.60
55121;DHT22;41019;48.512;9.036;2023-03-01T14:38:39;9.50;53.10
55121;DHT22;41019;48.512;9.036;2023-03-01T14:41:15;9.50;52.80
55121;DHT22;41019;48.512;9.036;2023-03-01T14:43:58;9.50;52.90
55121;DHT22;41019;48.512;9.036;2023-03-01T14:46:40;9.50;53.20
55121;DHT22;41019;48.512;9.036;2023-03-01T14:49:14;9.50;53.20
55121;DHT22;41019;48.512;9.036;2023-03-01T14:51:46;9.40;53.60
55121;DHT22;41019;48.512;9.036;2023-03-01T14:56:53;9.40;53.40
55121;DHT22;41019;48.512;9.036;2023-03-01T14:59:22;9.40;53.50
55121;DHT22;41019;48.512;9.036;2023-03-01T15:01:50;9.40;53.70
55121;DHT22;41019;48.512;9.036;2023-03-01T15:04:18;9.40;53.30
55121;DHT22;41019;48.512;9.036;2023-03-01T15:06:46;9.30;53.30
55121;DHT22;41019;48.512;9.036;2023-03-01T15:09:17;9.20;53.60
55121;DHT22;41019;48.512;9.036;2023-03-01T15:11:44;9.30;53.60
55121;DHT22;41019;48.512;9.036;2023-03-01T15:14:41;9.30;53.60
55121;DHT22;41019;48.512;9.036;2023-03-01T15:17:33;9.20;54.30
55121;DHT22;41019;48.512;9.036;2023-03-01T15:20:03;9.30;54.30
55121;DHT22;41019;48.512;9.036;2023-03-01T15:22:30;9.30;53.70
55121;DHT22;41019;48.512;9.036;2023-03-01T15:24:56;9.30;54.10
55121;DHT22;41019;48.512;9.036;2023-03-01T15:27:25;9.30;54.10
55121;DHT22;41019;48.512;9.036;2023-03-01T15:29:58;9.30;54.00
55121;DHT22;41019;48.512;9.036;2023-03-01T15:32:33;9.20;53.70
55121;DHT22;41019;48.512;9.036;2023-03-01T15:35:32;9.20;54.00
55121;DHT22;41019;48.512;9.036;2023-03-01T15:37:49;9.20;53.80
55121;DHT22;41019;48.512;9.036;2023-03-01T15:40:26;9.10;54.20
55121;DHT22;41019;48.512;9.036;2023-03-01T15:43:00;9.00;54.60
55121;DHT22;41019;48.512;9.036;2023-03-01T15:45:29;9.00;54.80
55121;DHT22;41019;48.512;9.036;2023-03-01T15:47:58;8.90;54.80
55121;DHT22;41019;48.512;9.036;2023-03-01T15:50:31;8.80;55.10
55121;DHT22;41019;48.512;9.036;2023-03-01T15:53:05;8.80;55.20
55121;DHT22;41019;48.512;9.036;2023-03-01T15:55:34;8.70;55.20
55121;DHT22;41019;48.512;9.036;2023-03-01T15:58:13;8.60;55.50
55121;DHT22;41019;48.512;9.036;2023-03-01T16:00:41;8.60;55.60
55121;DHT22;41019;48.512;9.036;2023-03-01T16:03:10;8.60;55.80
55121;DHT22;41019;48.512;9.036;2023-03-01T16:05:38;8.50;55.90
55121;DHT22;41019;48.512;9.036;2023-03-01T16:08:06;8.40;56.10
55121;DHT22;41019;48.512;9.036;2023-03-01T16:10:32;8.30;56.10
55121;DHT22;41019;48.512;9.036;2023-03-01T16:12:59;8.30;56.20
55121;DHT22;41019;48.512;9.036;2023-03-01T16:15:30;8.30;56.60
55121;DHT22;41019;48.512;9.036;2023-03-01T16:17:57;8.20;56.50
55121;DHT22;41019;48.512;9.036;2023-03-01T16:20:28;8.10;56.50
55121;DHT22;41019;48.512;9.036;2023-03-01T16:22:57;8.10;56.70
55121;DHT22;41019;48.512;9.036;2023-03-01T16:25:24;8.10;56.80
55121;DHT22;41019;48.512;9.036;2023-03-01T16:27:50;8.10;57.10
55121;DHT22;41019;48.512;9.036;2023-03-01T16:30:20;8.10;57.20
55121;DHT22;41019;48.512;9.036;2023-03-01T16:32:48;8.00;57.30
55121;DHT22;41019;48.512;9.036;2023-03-01T16:35:17;8.00;57.20
55121;DHT22;41019;48.512;9.036;2023-03-01T16:37:44;7.90;57.40
55121;DHT22;41019;48.512;9.036;2023-03-01T16:40:17;7.90;57.50
55121;DHT22;41019;48.512;9.036;2023-03-01T16:42:43;7.90;57.60
55121;DHT22;41019;48.512;9.036;2023-03-01T16:45:09;7.80;57.50
55121;DHT22;41019;48.512;9.036;2023-03-01T16:47:35;7.80;57.60
55121;DHT22;41019;48.512;9.036;2023-03-01T16:50:01;7.80;57.90
55121;DHT22;41019;48.512;9.036;2023-03-01T16:52:27;7.70;57.90
55121;DHT22;41019;48.512;9.036;2023-03-01T16:54:53;7.70;58.60
55121;DHT22;41019;48.512;9.036;2023-03-01T16:57:19;7.70;58.10
55121;DHT22;41019;48.512;9.036;2023-03-01T16:59:45;7.60;58.30
55121;DHT22;41019;48.512;9.036;2023-03-01T17:02:14;7.60;58.50
55121;DHT22;41019;48.512;9.036;2023-03-01T17:04:44;7.50;58.70
55121;DHT22;41019;48.512;9.036;2023-03-01T17:07:10;7.50;58.70
55121;DHT22;41019;48.512;9.036;2023-03-01T17:09:37;7.50;58.90
55121;DHT22;41019;48.512;9.036;2023-03-01T17:12:04;7.40;58.80
55121;DHT22;41019;48.512;9.036;2023-03-01T17:14:30;7.40;58.90
55121;DHT22;41019;48.512;9.036;2023-03-01T17:16:56;7.40;59.20
55121;DHT22;41019;48.512;9.036;2023-03-01T17:19:22;7.30;59.20
55121;DHT22;41019;48.512;9.036;2023-03-01T17:21:48;7.30;59.30
55121;DHT22;41019;48.512;9.036;2023-03-01T17:24:14;7.20;59.50
55121;DHT22;41019;48.512;9.036;2023-03-01T17:26:40;7.20;59.60
55121;DHT22;41019;48.512;9.036;2023-03-01T17:29:06;7.10;59.70
55121;DHT22;41019;48.512;9.036;2023-03-01T17:31:33;7.10;59.90
55121;DHT22;41019;48.512;9.036;2023-03-01T17:33:59;7.10;60.10
55121;DHT22;41019;48.512;9.036;2023-03-01T17:36:25;7.00;60.30
55121;DHT22;41019;48.512;9.036;2023-03-01T17:38:51;6.90;60.70
55121;DHT22;41019;48.512;9.036;2023-03-01T17:41:18;6.90;60.60
55121;DHT22;41019;48.512;9.036;2023-03-01T17:43:44;6.80;60.90